createdAt,value
2019-02-28T00:02:21.129Z,95385.91
2019-02-28T00:04:45.507Z,95383.81
2019-02-28T00:07:17.588Z,95380.13
2019-02-28T00:09:44.033Z,95384.91
2019-02-28T00:12:14.292Z,95382.73
2019-02-28T00:14:42.403Z,95379.66
2019-02-28T00:17:11.607Z,95378.70
2019-02-28T00:19:40.878Z,95377.81
2019-02-28T00:22:11.337Z,95379.59
2019-02-28T00:24:39.506Z,95371.97
2019-02-28T00:27:08.559Z,95368.16
2019-02-28T00:29:37.948Z,95370.84
2019-02-28T00:32:07.864Z,95371.62
2019-02-28T00:34:39.321Z,95370.26
2019-02-28T00:37:06.764Z,95367.94
2019-02-28T00:39:36.070Z,95368.82
2019-02-28T00:42:06.412Z,95365.30
2019-02-28T00:44:35.552Z,95368.65
2019-02-28T00:47:04.665Z,95361.65
2019-02-28T00:49:35.263Z,95366.59
2019-02-28T00:52:04.491Z,95365.16
2019-02-28T00:54:33.321Z,95363.92
2019-02-28T00:57:03.131Z,95358.02
2019-02-28T00:59:32.462Z,95357.47
2019-02-28T01:02:02.104Z,95360.51
2019-02-28T01:04:31.090Z,95358.13
2019-02-28T01:07:00.195Z,95354.80
2019-02-28T01:09:30.177Z,95356.95
2019-02-28T01:11:58.405Z,95352.76
2019-02-28T01:14:27.575Z,95346.98
2019-02-28T01:16:56.676Z,95348.18
2019-02-28T01:19:25.836Z,95344.05
2019-02-28T01:21:56.309Z,95345.47
2019-02-28T01:24:25.635Z,95341.59
2019-02-28T01:26:54.862Z,95344.92
2019-02-28T01:29:24.040Z,95339.76
2019-02-28T01:31:53.802Z,95342.24
2019-02-28T01:34:23.156Z,95333.56
2019-02-28T01:36:51.996Z,95331.78
2019-02-28T01:39:21.916Z,95335.38
2019-02-28T01:41:51.503Z,95337.95
2019-02-28T01:44:20.771Z,95337.17
2019-02-28T01:46:49.755Z,95326.49
2019-02-28T01:49:18.971Z,95328.37
2019-02-28T01:51:48.258Z,95322.33
2019-02-28T01:54:17.868Z,95326.01
2019-02-28T01:56:46.886Z,95330.56
2019-02-28T01:59:16.157Z,95326.63
2019-02-28T02:01:45.357Z,95328.66
2019-02-28T02:04:14.811Z,95327.69
2019-02-28T02:06:43.933Z,95327.84
2019-02-28T02:09:13.145Z,95331.78
2019-02-28T02:11:42.072Z,95327.75
2019-02-28T02:14:11.869Z,95334.08
2019-02-28T02:16:40.346Z,95329.27
2019-02-28T02:19:09.799Z,95326.95
2019-02-28T02:21:39.250Z,95328.40
2019-02-28T02:24:08.452Z,95322.07
2019-02-28T02:26:37.777Z,95329.95
2019-02-28T02:29:07.049Z,95324.88
2019-02-28T02:31:36.260Z,95327.88
2019-02-28T02:34:05.626Z,95326.39
2019-02-28T02:36:35.030Z,95324.81
2019-02-28T02:39:05.196Z,95324.49
2019-02-28T02:41:34.901Z,95312.20
2019-02-28T02:44:04.293Z,95310.58
2019-02-28T02:46:33.190Z,95302.12
2019-02-28T02:49:02.283Z,95303.00
2019-02-28T02:51:31.591Z,95301.91
2019-02-28T02:54:00.808Z,95304.97
2019-02-28T02:56:29.875Z,95294.45
2019-02-28T02:59:01.223Z,95294.09
2019-02-28T03:01:28.708Z,95291.23
2019-02-28T03:03:57.483Z,95294.77
2019-02-28T03:06:26.584Z,95289.94
2019-02-28T03:08:55.823Z,95293.20
2019-02-28T03:11:26.057Z,95294.68
2019-02-28T03:13:54.879Z,95300.88
2019-02-28T03:16:24.411Z,95293.42
2019-02-28T03:18:56.494Z,95287.80
2019-02-28T03:21:22.577Z,95286.35
2019-02-28T03:23:51.805Z,95281.88
2019-02-28T03:26:20.670Z,95271.80
2019-02-28T03:28:49.629Z,95278.67
2019-02-28T03:31:18.779Z,95286.97
2019-02-28T03:33:47.927Z,95275.23
2019-02-28T03:36:16.983Z,95278.61
2019-02-28T03:38:49.786Z,95281.39
2019-02-28T03:41:17.705Z,95278.57
2019-02-28T03:43:44.861Z,95287.39
2019-02-28T03:46:13.877Z,95286.00
2019-02-28T03:48:43.465Z,95282.35
2019-02-28T03:51:12.715Z,95280.12
2019-02-28T03:53:42.475Z,95279.67
2019-02-28T03:56:14.314Z,95278.25
2019-02-28T03:58:42.865Z,95285.16
2019-02-28T04:01:10.374Z,95273.67
2019-02-28T04:03:39.370Z,95271.84
2019-02-28T04:06:09.284Z,95264.84
2019-02-28T04:08:38.287Z,95260.73
2019-02-28T04:11:07.343Z,95263.77
2019-02-28T04:13:36.389Z,95261.41
2019-02-28T04:16:09.183Z,95254.35
2019-02-28T04:18:34.567Z,95258.73
2019-02-28T04:21:03.760Z,95249.97
2019-02-28T04:23:36.113Z,95257.73
2019-02-28T04:26:02.265Z,95261.48
2019-02-28T04:28:31.253Z,95262.09
2019-02-28T04:31:00.387Z,95265.05
2019-02-28T04:33:29.642Z,95264.59
2019-02-28T04:36:00.617Z,95265.37
2019-02-28T04:38:27.766Z,95264.02
2019-02-28T04:40:58.855Z,95259.69
2019-02-28T04:43:26.032Z,95261.75
2019-02-28T04:45:57.653Z,95264.75
2019-02-28T04:48:25.098Z,95267.23
2019-02-28T04:50:54.103Z,95267.09
2019-02-28T04:53:23.261Z,95268.08
2019-02-28T04:55:52.226Z,95265.38
2019-02-28T04:58:22.346Z,95261.52
2019-02-28T05:00:51.267Z,95267.30
2019-02-28T05:03:20.919Z,95267.91
2019-02-28T05:05:49.944Z,95268.08
2019-02-28T05:08:19.895Z,95264.41
2019-02-28T05:10:49.139Z,95267.34
2019-02-28T05:13:22.771Z,95272.56
2019-02-28T05:15:52.777Z,95264.83
2019-02-28T05:18:21.763Z,95263.48
2019-02-28T05:37:35.632Z,95273.09
2019-02-28T05:40:06.148Z,95269.45
2019-02-28T05:42:34.592Z,95271.38
2019-02-28T05:45:04.313Z,95274.45
2019-02-28T05:47:33.340Z,95279.73
2019-02-28T05:50:02.754Z,95278.48
2019-02-28T05:52:33.753Z,95289.91
2019-02-28T05:55:00.772Z,95292.03
2019-02-28T05:57:30.014Z,95295.09
2019-02-28T06:00:01.951Z,95299.68
2019-02-28T06:02:28.671Z,95308.45
2019-02-28T06:04:57.610Z,95310.62
2019-02-28T06:07:28.751Z,95309.27
2019-02-28T06:09:55.767Z,95304.30
2019-02-28T06:12:24.876Z,95307.09
2019-02-28T06:14:54.316Z,95308.03
2019-02-28T06:17:24.079Z,95314.11
2019-02-28T06:19:53.428Z,95319.11
2019-02-28T06:22:22.634Z,95316.62
2019-02-28T06:24:51.778Z,95316.06
2019-02-28T06:27:20.927Z,95321.84
2019-02-28T06:29:50.667Z,95315.41
2019-02-28T06:32:23.299Z,95310.17
2019-02-28T06:34:48.810Z,95310.34
2019-02-28T06:37:17.906Z,95310.15
2019-02-28T06:39:46.941Z,95309.98
2019-02-28T06:42:16.051Z,95314.67
2019-02-28T06:44:45.420Z,95307.63
2019-02-28T06:47:14.804Z,95305.05
2019-02-28T06:49:43.448Z,95310.22
2019-02-28T06:52:13.305Z,95305.99
2019-02-28T06:54:42.242Z,95302.80
2019-02-28T06:57:11.508Z,95305.48
2019-02-28T06:59:40.478Z,95300.30
2019-02-28T07:02:09.927Z,95302.33
2019-02-28T07:04:38.799Z,95297.11
2019-02-28T07:07:10.260Z,95302.52
2019-02-28T07:09:37.264Z,95289.06
2019-02-28T07:12:06.877Z,95291.03
2019-02-28T07:14:36.621Z,95286.66
2019-02-28T07:17:07.691Z,95278.69
2019-02-28T07:19:34.988Z,95268.92
2019-02-28T07:22:04.133Z,95266.72
2019-02-28T07:24:37.305Z,95264.59
2019-02-28T07:27:04.254Z,95258.02
2019-02-28T07:29:32.159Z,95259.67
2019-02-28T07:32:01.661Z,95256.77
2019-02-28T07:34:31.115Z,95271.47
2019-02-28T07:37:00.408Z,95264.99
2019-02-28T07:39:29.432Z,95265.12
2019-02-28T07:42:02.227Z,95266.36
2019-02-28T07:44:28.395Z,95270.61
2019-02-28T07:46:57.735Z,95263.70
2019-02-28T07:49:27.428Z,95262.30
2019-02-28T07:51:57.217Z,95266.72
2019-02-28T07:54:26.012Z,95269.50
2019-02-28T07:56:55.235Z,95264.50
2019-02-28T07:59:24.638Z,95262.24
2019-02-28T08:01:53.763Z,95259.06
2019-02-28T08:04:22.915Z,95258.07
2019-02-28T08:06:52.327Z,95260.42
2019-02-28T08:09:26.091Z,95254.43
2019-02-28T08:11:56.737Z,95254.73
2019-02-28T08:14:24.536Z,95262.46
2019-02-28T08:16:53.672Z,95270.04
2019-02-28T08:19:27.196Z,95265.24
2019-02-28T08:21:52.873Z,95269.38
2019-02-28T08:24:22.704Z,95262.07
2019-02-28T08:26:53.501Z,95268.87
2019-02-28T08:29:21.087Z,95264.48
2019-02-28T08:31:50.974Z,95258.39
2019-02-28T08:34:20.639Z,95256.19
2019-02-28T08:36:49.248Z,95249.25
2019-02-28T08:39:18.534Z,95244.83
2019-02-28T08:41:49.544Z,95246.40
2019-02-28T08:44:22.806Z,95231.77
2019-02-28T09:03:32.268Z,95203.32
2019-02-28T09:06:04.191Z,95200.14
2019-02-28T09:08:31.068Z,95195.16
2019-02-28T09:11:01.924Z,95195.45
2019-02-28T09:13:31.156Z,95193.22
2019-02-28T09:16:01.983Z,95196.53
2019-02-28T09:18:29.424Z,95187.91
2019-02-28T09:20:58.576Z,95188.53
2019-02-28T09:23:28.134Z,95180.12
2019-02-28T09:25:57.655Z,95177.30
2019-02-28T09:28:27.470Z,95181.44
2019-02-28T09:30:57.253Z,95175.73
2019-02-28T09:33:26.349Z,95173.33
2019-02-28T09:35:55.342Z,95171.08
2019-02-28T09:38:24.603Z,95166.59
2019-02-28T09:40:54.047Z,95170.31
2019-02-28T09:43:23.847Z,95169.46
2019-02-28T09:45:52.115Z,95170.91
2019-02-28T09:48:21.292Z,95159.91
2019-02-28T09:50:50.337Z,95155.06
2019-02-28T09:53:19.341Z,95156.09
2019-02-28T09:55:48.418Z,95166.79
2019-02-28T09:58:17.560Z,95151.77
2019-02-28T10:00:50.212Z,95149.01
2019-02-28T10:03:18.650Z,95145.48
2019-02-28T10:05:45.356Z,95144.56
2019-02-28T10:08:15.290Z,95142.85
2019-02-28T10:10:44.678Z,95140.38
2019-02-28T10:13:14.550Z,95139.08
2019-02-28T10:15:43.236Z,95139.56
2019-02-28T10:18:12.641Z,95126.65
2019-02-28T10:20:42.075Z,95118.75
2019-02-28T10:23:11.252Z,95119.53
2019-02-28T10:25:43.505Z,95112.86
2019-02-28T10:28:10.459Z,95103.95
2019-02-28T10:30:40.571Z,95091.75
2019-02-28T10:33:09.671Z,95089.41
2019-02-28T10:35:38.919Z,95084.98
2019-02-28T10:38:08.179Z,95071.78
2019-02-28T10:40:37.272Z,95068.55
2019-02-28T10:43:06.512Z,95061.02
2019-02-28T10:45:41.265Z,95063.45
2019-02-28T10:48:05.436Z,95064.88
2019-02-28T10:50:34.866Z,95062.19
2019-02-28T10:53:05.747Z,95055.56
2019-02-28T10:55:33.369Z,95044.53
2019-02-28T10:58:03.093Z,95033.94
2019-02-28T11:00:33.709Z,95030.91
2019-02-28T11:03:02.147Z,95034.26
2019-02-28T11:05:32.097Z,95028.67
2019-02-28T11:08:01.760Z,95019.72
2019-02-28T11:10:35.499Z,95002.17
2019-02-28T11:13:01.669Z,94989.96
2019-02-28T11:15:30.861Z,94989.80
2019-02-28T11:18:00.375Z,94985.02
2019-02-28T11:20:30.160Z,94982.14
2019-02-28T11:22:59.207Z,94980.06
2019-02-28T11:25:28.275Z,94979.46
2019-02-28T11:27:57.433Z,94972.72
2019-02-28T11:30:26.703Z,94965.89
2019-02-28T11:32:55.772Z,94954.57
2019-02-28T11:35:25.544Z,94956.92
2019-02-28T11:37:54.784Z,94958.14
2019-02-28T11:40:24.791Z,94954.45
2019-02-28T11:42:53.987Z,94947.09
2019-02-28T11:45:25.558Z,94940.91
2019-02-28T11:47:54.990Z,94935.86
2019-02-28T11:50:24.266Z,94932.87
2019-02-28T11:52:53.566Z,94932.23
2019-02-28T11:55:22.926Z,94924.69
2019-02-28T11:57:52.352Z,94921.41
2019-02-28T12:00:25.799Z,94911.99
2019-02-28T12:02:59.915Z,94901.31
2019-02-28T12:05:24.591Z,94901.95
2019-02-28T12:07:53.807Z,94899.32
2019-02-28T12:10:26.909Z,94891.16
2019-02-28T12:12:52.842Z,94877.59
2019-02-28T12:15:23.238Z,94873.59
2019-02-28T12:17:52.196Z,94863.85
2019-02-28T12:20:25.914Z,94865.33
2019-02-28T12:22:50.638Z,94855.21
2019-02-28T12:25:20.190Z,94849.25
2019-02-28T12:27:49.906Z,94862.58
2019-02-28T12:30:21.948Z,94849.89
2019-02-28T12:32:52.465Z,94857.11
2019-02-28T12:35:19.960Z,94845.05
2019-02-28T12:37:49.909Z,94828.64
2019-02-28T12:40:21.224Z,94840.09
2019-02-28T12:42:50.325Z,94832.45
2019-02-28T12:45:24.405Z,94825.84
2019-02-28T12:47:51.189Z,94818.41
2019-02-28T12:50:20.589Z,94815.61
2019-02-28T12:52:50.075Z,94814.00
2019-02-28T12:55:18.878Z,94805.84
2019-02-28T12:57:49.136Z,94805.56
2019-02-28T13:00:23.405Z,94795.83
2019-02-28T13:02:50.471Z,94799.19
2019-02-28T13:05:20.432Z,94803.67
2019-02-28T13:07:50.516Z,94784.47
2019-02-28T13:10:20.109Z,94783.91
2019-02-28T13:12:49.895Z,94783.34
2019-02-28T13:15:18.847Z,94779.86
2019-02-28T13:17:47.963Z,94773.23
2019-02-28T13:20:18.595Z,94767.45
2019-02-28T13:22:48.419Z,94755.08
2019-02-28T13:25:19.476Z,94761.89
2019-02-28T13:27:46.839Z,94747.00
2019-02-28T13:30:18.189Z,94736.25
2019-02-28T13:32:47.516Z,94736.05
2019-02-28T13:35:18.685Z,94727.96
2019-02-28T13:37:48.003Z,94736.55
2019-02-28T13:40:17.488Z,94719.80
2019-02-28T13:42:47.252Z,94715.88
2019-02-28T13:45:23.303Z,94720.34
2019-02-28T13:47:47.821Z,94716.50
2019-02-28T13:50:17.511Z,94704.80
2019-02-28T13:52:47.020Z,94703.22
2019-02-28T13:55:18.989Z,94714.00
2019-02-28T13:57:46.839Z,94699.80
2019-02-28T14:00:22.041Z,94692.19
2019-02-28T14:02:52.850Z,94686.13
2019-02-28T14:05:21.934Z,94690.14
2019-02-28T14:07:52.717Z,94691.25
2019-02-28T14:10:22.222Z,94684.39
2019-02-28T14:12:53.235Z,94682.81
2019-02-28T14:15:24.990Z,94674.10
2019-02-28T14:17:52.109Z,94684.28
2019-02-28T14:20:24.397Z,94684.11
2019-02-28T14:22:50.757Z,94677.62
2019-02-28T14:25:20.835Z,94678.71
2019-02-28T14:27:49.918Z,94683.31
2019-02-28T14:30:22.767Z,94691.69
2019-02-28T14:32:49.876Z,94688.00
2019-02-28T14:35:22.706Z,94680.02
2019-02-28T14:37:51.805Z,94676.17
2019-02-28T14:40:18.785Z,94668.79
2019-02-28T14:42:47.596Z,94676.54
2019-02-28T14:45:17.013Z,94667.01
2019-02-28T14:47:46.083Z,94660.71
2019-02-28T14:50:15.496Z,94662.17
2019-02-28T14:52:44.993Z,94662.41
2019-02-28T14:55:15.669Z,94659.22
2019-02-28T14:57:44.832Z,94659.31
2019-02-28T15:00:17.256Z,94659.51
2019-02-28T15:02:46.807Z,94661.92
2019-02-28T15:05:16.609Z,94656.55
2019-02-28T15:07:45.860Z,94658.50
2019-02-28T15:10:16.569Z,94665.03
2019-02-28T15:12:45.627Z,94663.09
2019-02-28T15:15:18.023Z,94649.23
2019-02-28T15:17:45.499Z,94646.30
2019-02-28T15:20:14.796Z,94647.05
2019-02-28T15:22:43.921Z,94646.42
2019-02-28T15:25:15.333Z,94650.85
2019-02-28T15:27:43.533Z,94648.87
2019-02-28T15:30:14.880Z,94639.16
2019-02-28T15:32:43.875Z,94652.42
2019-02-28T15:35:15.369Z,94651.48
2019-02-28T15:37:44.048Z,94643.87
2019-02-28T15:56:59.246Z,94650.73
2019-02-28T15:59:28.621Z,94649.70
2019-02-28T16:01:57.673Z,94644.49
2019-02-28T16:04:27.015Z,94642.95
2019-02-28T16:06:57.944Z,94643.02
2019-02-28T16:09:24.987Z,94635.41
2019-02-28T16:11:54.335Z,94633.62
2019-02-28T16:14:23.579Z,94637.87
2019-02-28T16:16:52.854Z,94642.63
2019-02-28T16:19:22.827Z,94640.34
2019-02-28T16:21:51.793Z,94626.97
2019-02-28T16:41:06.710Z,94633.12
2019-02-28T16:43:35.803Z,94634.14
2019-02-28T17:02:50.463Z,94644.95
2019-02-28T17:22:05.623Z,94642.10
2019-02-28T17:24:34.927Z,94631.07
2019-02-28T17:27:09.200Z,94639.71
2019-02-28T17:46:25.319Z,94610.89
2019-02-28T17:49:04.647Z,94601.73
2019-02-28T17:51:55.502Z,94590.73
2019-02-28T17:54:29.499Z,94592.04
2019-02-28T17:57:05.704Z,94579.45
2019-02-28T17:59:44.924Z,94582.34
2019-02-28T18:02:25.802Z,94571.60
2019-02-28T18:05:29.877Z,94574.48
2019-02-28T18:08:02.667Z,94566.34
2019-02-28T18:10:46.189Z,94569.23
2019-02-28T18:13:21.928Z,94564.25
2019-02-28T18:16:01.599Z,94567.92
2019-02-28T18:19:44.167Z,94570.02
2019-02-28T18:24:37.939Z,94563.74
2019-02-28T18:28:27.311Z,94566.37
2019-02-28T18:31:06.046Z,94559.02
2019-02-28T18:33:35.412Z,94569.25
2019-02-28T18:36:08.460Z,94562.70
2019-02-28T18:38:36.498Z,94565.56
2019-02-28T18:41:06.448Z,94573.08
2019-02-28T18:43:34.399Z,94575.14
2019-02-28T18:46:03.604Z,94571.62
2019-02-28T18:48:32.858Z,94565.80
2019-02-28T18:51:02.029Z,94596.59
2019-02-28T18:53:31.068Z,94599.84
2019-02-28T18:56:00.278Z,94587.44
2019-02-28T18:58:29.608Z,94594.95
2019-02-28T19:00:58.889Z,94604.34
2019-02-28T19:03:28.082Z,94600.17
2019-02-28T19:05:57.407Z,94595.81
2019-02-28T19:08:26.935Z,94600.03
2019-02-28T19:10:55.982Z,94605.34
2019-02-28T19:13:24.987Z,94608.80
2019-02-28T19:15:54.452Z,94610.30
2019-02-28T19:18:23.876Z,94608.91
2019-02-28T19:20:55.660Z,94603.38
2019-02-28T19:23:23.501Z,94594.98
2019-02-28T19:25:52.474Z,94598.97
2019-02-28T19:28:21.787Z,94609.59
2019-02-28T19:30:50.883Z,94613.66
2019-02-28T19:33:21.485Z,94606.31
2019-02-28T19:35:51.112Z,94592.88
2019-02-28T19:38:20.501Z,94601.17
2019-02-28T19:40:49.590Z,94591.98
2019-02-28T19:43:18.679Z,94596.16
2019-02-28T19:45:47.679Z,94585.07
2019-02-28T19:48:16.739Z,94587.22
2019-02-28T19:50:45.995Z,94580.04
2019-02-28T19:53:15.207Z,94582.47
2019-02-28T19:55:44.321Z,94572.47
2019-02-28T19:58:13.410Z,94570.88
2019-02-28T20:00:42.996Z,94581.70
2019-02-28T20:03:12.047Z,94589.06
2019-02-28T20:05:41.104Z,94578.21
2019-02-28T20:08:10.099Z,94582.94
2019-02-28T20:10:39.980Z,94586.81
2019-02-28T20:13:09.561Z,94580.97
2019-02-28T20:15:39.985Z,94587.89
2019-02-28T20:18:09.275Z,94577.81
2019-02-28T20:20:38.123Z,94574.30
2019-02-28T20:23:07.218Z,94581.27
2019-02-28T20:25:36.312Z,94596.48
2019-02-28T20:44:49.650Z,94580.91
2019-02-28T20:47:18.575Z,94575.58
2019-02-28T20:49:47.574Z,94588.38
2019-02-28T20:52:16.690Z,94589.10
2019-02-28T20:54:45.533Z,94577.76
2019-02-28T20:57:14.845Z,94583.83
2019-02-28T20:59:44.040Z,94576.12
2019-02-28T21:02:13.228Z,94577.82
2019-02-28T21:04:42.139Z,94579.19
2019-02-28T21:07:11.315Z,94581.16
2019-02-28T21:09:44.957Z,94573.17
2019-02-28T21:12:10.248Z,94584.28
2019-02-28T21:14:39.416Z,94597.42
2019-02-28T21:17:08.760Z,94611.81
2019-02-28T21:19:39.189Z,94600.30
2019-02-28T21:22:08.681Z,94601.22
2019-02-28T21:24:38.493Z,94600.32
2019-02-28T21:27:07.525Z,94595.22
2019-02-28T21:29:36.427Z,94590.97
2019-02-28T21:32:05.555Z,94590.57
2019-02-28T21:34:34.797Z,94593.00
2019-02-28T21:37:03.977Z,94592.20
2019-02-28T21:56:16.898Z,94617.73
2019-02-28T21:58:46.277Z,94621.30
2019-02-28T22:18:01.081Z,94621.95
2019-02-28T22:20:30.384Z,94614.91
2019-02-28T22:22:59.570Z,94609.38
2019-02-28T22:25:28.798Z,94606.62
2019-02-28T22:27:58.263Z,94610.19
2019-02-28T22:30:42.122Z,94597.27
2019-02-28T22:33:15.391Z,94586.44
2019-02-28T22:35:49.548Z,94587.23
2019-02-28T22:38:19.114Z,94582.54
2019-02-28T22:40:48.564Z,94593.09
2019-02-28T22:43:17.958Z,94591.00
2019-02-28T22:45:47.030Z,94590.75
2019-02-28T22:48:16.250Z,94596.39
2019-02-28T22:50:45.795Z,94615.04
2019-02-28T22:53:14.867Z,94615.23
2019-02-28T22:55:44.685Z,94614.24
2019-02-28T22:58:14.394Z,94616.00
2019-02-28T23:00:55.283Z,94614.20
2019-02-28T23:03:25.081Z,94616.66
2019-02-28T23:05:54.168Z,94605.86
2019-02-28T23:08:23.265Z,94612.09
2019-02-28T23:10:52.519Z,94617.30
2019-02-28T23:13:22.262Z,94613.28
2019-02-28T23:15:51.581Z,94610.88
2019-02-28T23:18:20.906Z,94613.09
2019-02-28T23:20:51.531Z,94613.77
2019-02-28T23:23:21.568Z,94611.15
2019-02-28T23:25:50.503Z,94606.23
2019-02-28T23:28:28.036Z,94606.52
2019-02-28T23:31:37.968Z,94602.93
2019-02-28T23:34:12.359Z,94591.94
2019-02-28T23:36:41.187Z,94594.58
2019-02-28T23:39:10.173Z,94610.66
2019-02-28T23:41:39.653Z,94596.05
2019-02-28T23:44:08.736Z,94587.56
2019-02-28T23:46:37.975Z,94588.03
2019-02-28T23:49:07.273Z,94595.16
2019-02-28T23:51:37.090Z,94599.02
2019-02-28T23:54:06.258Z,94600.69
2019-02-28T23:56:35.419Z,94592.75
2019-02-28T23:59:04.691Z,94604.70
